Terminal Aerodrome Forecast
Issued by NWS Miami, FL

Home | Current Version | Previous Version | Text Only | Print | Product List | Glossary On
Versions: 1 2 3 4 5 6 7 8 9 10 11 12 13 14 15 16 17 18 19 20 21 22 23 24 25 26 27 28 29 30 31
000
FTUS42 KMFL 280254 AAA
TAFAPF
TAF AMD
KAPF 280254Z 2803/2824 17012KT P6SM SHRA SCT020 SCT035 BKN040
     FM281400 18015G25KT P6SM SHRA SCT015 BKN035
     FM281700 20018G28KT P6SM VCTS SCT015CB BKN035 OVC050=

USA.gov is the U.S. government's official web portal to all federal, state and local government web resources and services.